sensor_id;sensor_type;location;lat;lon;timestamp;P1;durP1;ratioP1;P2;durP2;ratioP2
22764;SDS011;11549;50.852;3.816;2023-07-13T00:01:16;9.30;;;2.08;;
22764;SDS011;11549;50.852;3.816;2023-07-13T00:03:53;11.18;;;2.30;;
22764;SDS011;11549;50.852;3.816;2023-07-13T00:06:22;8.00;;;2.30;;
22764;SDS011;11549;50.852;3.816;2023-07-13T00:09:00;11.15;;;2.25;;
22764;SDS011;11549;50.852;3.816;2023-07-13T00:11:37;13.02;;;2.40;;
22764;SDS011;11549;50.852;3.816;2023-07-13T00:14:18;9.98;;;2.72;;
22764;SDS011;11549;50.852;3.816;2023-07-13T00:16:47;8.57;;;2.28;;
22764;SDS011;11549;50.852;3.816;2023-07-13T00:19:16;9.80;;;2.60;;
22764;SDS011;11549;50.852;3.816;2023-07-13T00:21:45;9.70;;;2.40;;
22764;SDS011;11549;50.852;3.816;2023-07-13T00:24:14;8.95;;;2.83;;
22764;SDS011;11549;50.852;3.816;2023-07-13T00:26:48;7.65;;;2.47;;
22764;SDS011;11549;50.852;3.816;2023-07-13T00:29:17;9.68;;;2.22;;
22764;SDS011;11549;50.852;3.816;2023-07-13T00:31:49;12.13;;;2.83;;
22764;SDS011;11549;50.852;3.816;2023-07-13T00:34:18;9.57;;;2.58;;
22764;SDS011;11549;50.852;3.816;2023-07-13T00:36:47;10.02;;;2.70;;
22764;SDS011;11549;50.852;3.816;2023-07-13T00:39:15;11.07;;;2.40;;
22764;SDS011;11549;50.852;3.816;2023-07-13T00:41:44;16.20;;;2.50;;
22764;SDS011;11549;50.852;3.816;2023-07-13T00:44:12;13.07;;;2.92;;
22764;SDS011;11549;50.852;3.816;2023-07-13T00:46:42;11.07;;;2.45;;
22764;SDS011;11549;50.852;3.816;2023-07-13T00:49:13;11.57;;;2.85;;
22764;SDS011;11549;50.852;3.816;2023-07-13T00:51:47;11.10;;;2.90;;
22764;SDS011;11549;50.852;3.816;2023-07-13T00:54:19;10.15;;;2.45;;
22764;SDS011;11549;50.852;3.816;2023-07-13T00:56:51;10.38;;;2.75;;
22764;SDS011;11549;50.852;3.816;2023-07-13T00:59:24;9.98;;;2.60;;
22764;SDS011;11549;50.852;3.816;2023-07-13T01:01:54;11.95;;;3.15;;
22764;SDS011;11549;50.852;3.816;2023-07-13T01:04:24;14.02;;;2.78;;
22764;SDS011;11549;50.852;3.816;2023-07-13T01:06:54;13.38;;;2.90;;
22764;SDS011;11549;50.852;3.816;2023-07-13T01:09:23;10.15;;;2.78;;
22764;SDS011;11549;50.852;3.816;2023-07-13T01:11:55;15.07;;;3.22;;
22764;SDS011;11549;50.852;3.816;2023-07-13T01:14:23;13.30;;;2.70;;
22764;SDS011;11549;50.852;3.816;2023-07-13T01:16:52;14.68;;;3.22;;
22764;SDS011;11549;50.852;3.816;2023-07-13T01:19:25;13.68;;;3.20;;
22764;SDS011;11549;50.852;3.816;2023-07-13T01:22:05;11.30;;;2.75;;
22764;SDS011;11549;50.852;3.816;2023-07-13T01:24:38;13.60;;;2.92;;
22764;SDS011;11549;50.852;3.816;2023-07-13T01:27:09;10.30;;;3.10;;
22764;SDS011;11549;50.852;3.816;2023-07-13T01:29:39;13.23;;;2.92;;
22764;SDS011;11549;50.852;3.816;2023-07-13T01:32:09;12.95;;;2.80;;
22764;SDS011;11549;50.852;3.816;2023-07-13T01:34:40;10.75;;;3.10;;
22764;SDS011;11549;50.852;3.816;2023-07-13T01:37:12;14.40;;;3.40;;
22764;SDS011;11549;50.852;3.816;2023-07-13T01:39:40;11.43;;;3.17;;
22764;SDS011;11549;50.852;3.816;2023-07-13T01:42:09;13.07;;;2.60;;
22764;SDS011;11549;50.852;3.816;2023-07-13T01:44:37;10.82;;;3.10;;
22764;SDS011;11549;50.852;3.816;2023-07-13T01:47:06;8.68;;;2.60;;
22764;SDS011;11549;50.852;3.816;2023-07-13T01:49:34;14.25;;;2.95;;
22764;SDS011;11549;50.852;3.816;2023-07-13T01:52:04;12.15;;;2.75;;
22764;SDS011;11549;50.852;3.816;2023-07-13T01:54:34;12.98;;;3.30;;
22764;SDS011;11549;50.852;3.816;2023-07-13T01:57:03;13.02;;;2.95;;
22764;SDS011;11549;50.852;3.816;2023-07-13T01:59:32;12.07;;;2.72;;
22764;SDS011;11549;50.852;3.816;2023-07-13T02:02:01;12.35;;;2.90;;
22764;SDS011;11549;50.852;3.816;2023-07-13T02:04:29;10.50;;;3.30;;
22764;SDS011;11549;50.852;3.816;2023-07-13T02:06:58;15.07;;;3.75;;
22764;SDS011;11549;50.852;3.816;2023-07-13T02:09:27;10.15;;;2.80;;
22764;SDS011;11549;50.852;3.816;2023-07-13T02:12:01;9.82;;;2.80;;
22764;SDS011;11549;50.852;3.816;2023-07-13T02:14:30;14.32;;;3.15;;
22764;SDS011;11549;50.852;3.816;2023-07-13T02:16:59;11.38;;;3.03;;
22764;SDS011;11549;50.852;3.816;2023-07-13T02:19:27;12.90;;;2.83;;
22764;SDS011;11549;50.852;3.816;2023-07-13T02:21:56;12.63;;;2.92;;
22764;SDS011;11549;50.852;3.816;2023-07-13T02:24:25;11.98;;;3.22;;
22764;SDS011;11549;50.852;3.816;2023-07-13T02:26:53;12.75;;;3.00;;
22764;SDS011;11549;50.852;3.816;2023-07-13T02:29:24;10.45;;;2.50;;
22764;SDS011;11549;50.852;3.816;2023-07-13T02:31:53;8.63;;;2.67;;
22764;SDS011;11549;50.852;3.816;2023-07-13T02:34:21;8.25;;;2.65;;
22764;SDS011;11549;50.852;3.816;2023-07-13T02:36:49;12.27;;;3.33;;
22764;SDS011;11549;50.852;3.816;2023-07-13T02:39:18;12.50;;;3.20;;
22764;SDS011;11549;50.852;3.816;2023-07-13T02:41:48;12.90;;;3.03;;
22764;SDS011;11549;50.852;3.816;2023-07-13T02:44:17;14.18;;;2.90;;
22764;SDS011;11549;50.852;3.816;2023-07-13T02:46:46;11.48;;;3.25;;
22764;SDS011;11549;50.852;3.816;2023-07-13T02:49:15;15.55;;;3.60;;
22764;SDS011;11549;50.852;3.816;2023-07-13T02:51:43;10.55;;;3.03;;
22764;SDS011;11549;50.852;3.816;2023-07-13T02:54:12;13.55;;;3.80;;
22764;SDS011;11549;50.852;3.816;2023-07-13T02:59:41;13.45;;;3.15;;
22764;SDS011;11549;50.852;3.816;2023-07-13T03:02:12;15.80;;;3.70;;
22764;SDS011;11549;50.852;3.816;2023-07-13T03:04:40;11.60;;;3.13;;
22764;SDS011;11549;50.852;3.816;2023-07-13T03:07:08;12.30;;;3.13;;
22764;SDS011;11549;50.852;3.816;2023-07-13T03:09:37;12.43;;;3.45;;
22764;SDS011;11549;50.852;3.816;2023-07-13T03:12:06;17.08;;;4.07;;
22764;SDS011;11549;50.852;3.816;2023-07-13T03:14:34;16.40;;;3.85;;
22764;SDS011;11549;50.852;3.816;2023-07-13T03:17:03;15.43;;;3.97;;
22764;SDS011;11549;50.852;3.816;2023-07-13T03:19:33;14.63;;;3.45;;
22764;SDS011;11549;50.852;3.816;2023-07-13T03:22:02;11.25;;;3.15;;
22764;SDS011;11549;50.852;3.816;2023-07-13T03:24:32;15.57;;;3.78;;
22764;SDS011;11549;50.852;3.816;2023-07-13T03:27:08;12.32;;;3.42;;
22764;SDS011;11549;50.852;3.816;2023-07-13T03:29:37;12.63;;;3.55;;
22764;SDS011;11549;50.852;3.816;2023-07-13T03:32:05;14.40;;;3.83;;
22764;SDS011;11549;50.852;3.816;2023-07-13T03:34:36;14.60;;;3.92;;
22764;SDS011;11549;50.852;3.816;2023-07-13T03:37:05;12.82;;;3.92;;
22764;SDS011;11549;50.852;3.816;2023-07-13T03:39:34;14.70;;;3.60;;
22764;SDS011;11549;50.852;3.816;2023-07-13T03:42:02;20.10;;;4.13;;
22764;SDS011;11549;50.852;3.816;2023-07-13T03:44:32;20.35;;;3.80;;
22764;SDS011;11549;50.852;3.816;2023-07-13T03:47:00;12.43;;;3.85;;
22764;SDS011;11549;50.852;3.816;2023-07-13T03:49:28;16.77;;;4.45;;
22764;SDS011;11549;50.852;3.816;2023-07-13T03:51:58;11.18;;;3.90;;
22764;SDS011;11549;50.852;3.816;2023-07-13T03:54:26;15.73;;;4.22;;
22764;SDS011;11549;50.852;3.816;2023-07-13T03:56:55;15.57;;;4.25;;
22764;SDS011;11549;50.852;3.816;2023-07-13T03:59:24;15.77;;;4.20;;
22764;SDS011;11549;50.852;3.816;2023-07-13T04:01:52;16.45;;;4.40;;
22764;SDS011;11549;50.852;3.816;2023-07-13T04:04:21;13.45;;;3.70;;
22764;SDS011;11549;50.852;3.816;2023-07-13T04:06:50;17.58;;;4.00;;
22764;SDS011;11549;50.852;3.816;2023-07-13T04:09:20;12.98;;;3.70;;
22764;SDS011;11549;50.852;3.816;2023-07-13T04:11:49;16.55;;;4.35;;
22764;SDS011;11549;50.852;3.816;2023-07-13T04:14:18;16.67;;;3.90;;
22764;SDS011;11549;50.852;3.816;2023-07-13T04:16:46;15.98;;;3.85;;
22764;SDS011;11549;50.852;3.816;2023-07-13T04:19:15;15.38;;;4.20;;
22764;SDS011;11549;50.852;3.816;2023-07-13T04:21:43;14.57;;;4.47;;
22764;SDS011;11549;50.852;3.816;2023-07-13T04:24:12;15.10;;;4.03;;
22764;SDS011;11549;50.852;3.816;2023-07-13T04:26:46;13.73;;;4.00;;
22764;SDS011;11549;50.852;3.816;2023-07-13T04:29:14;19.92;;;4.20;;
22764;SDS011;11549;50.852;3.816;2023-07-13T04:31:43;13.13;;;3.97;;
22764;SDS011;11549;50.852;3.816;2023-07-13T04:34:11;13.80;;;4.05;;
22764;SDS011;11549;50.852;3.816;2023-07-13T04:36:40;13.63;;;3.88;;
22764;SDS011;11549;50.852;3.816;2023-07-13T04:39:08;12.63;;;3.88;;
22764;SDS011;11549;50.852;3.816;2023-07-13T04:41:37;15.07;;;4.13;;
22764;SDS011;11549;50.852;3.816;2023-07-13T04:44:06;14.52;;;4.00;;
22764;SDS011;11549;50.852;3.816;2023-07-13T04:46:35;12.95;;;3.75;;
22764;SDS011;11549;50.852;3.816;2023-07-13T04:49:04;14.13;;;3.53;;
22764;SDS011;11549;50.852;3.816;2023-07-13T04:51:32;13.60;;;3.75;;
22764;SDS011;11549;50.852;3.816;2023-07-13T04:54:00;19.80;;;4.70;;
22764;SDS011;11549;50.852;3.816;2023-07-13T04:56:30;17.20;;;3.95;;
22764;SDS011;11549;50.852;3.816;2023-07-13T04:58:58;17.10;;;3.75;;
22764;SDS011;11549;50.852;3.816;2023-07-13T05:01:28;20.63;;;4.97;;
22764;SDS011;11549;50.852;3.816;2023-07-13T05:03:57;17.23;;;4.53;;
22764;SDS011;11549;50.852;3.816;2023-07-13T05:06:26;15.77;;;3.95;;
22764;SDS011;11549;50.852;3.816;2023-07-13T05:08:55;18.42;;;4.28;;
22764;SDS011;11549;50.852;3.816;2023-07-13T05:11:23;13.65;;;4.03;;
22764;SDS011;11549;50.852;3.816;2023-07-13T05:13:52;17.17;;;3.90;;
22764;SDS011;11549;50.852;3.816;2023-07-13T05:16:20;15.38;;;3.97;;
22764;SDS011;11549;50.852;3.816;2023-07-13T05:18:50;15.00;;;4.60;;
22764;SDS011;11549;50.852;3.816;2023-07-13T05:21:18;12.05;;;3.80;;
22764;SDS011;11549;50.852;3.816;2023-07-13T05:23:47;16.48;;;4.35;;
22764;SDS011;11549;50.852;3.816;2023-07-13T05:26:16;13.90;;;4.00;;
22764;SDS011;11549;50.852;3.816;2023-07-13T05:28:44;15.98;;;3.72;;
22764;SDS011;11549;50.852;3.816;2023-07-13T05:31:12;16.23;;;4.10;;
22764;SDS011;11549;50.852;3.816;2023-07-13T05:33:41;12.45;;;3.70;;
22764;SDS011;11549;50.852;3.816;2023-07-13T05:36:11;12.75;;;3.80;;
22764;SDS011;11549;50.852;3.816;2023-07-13T05:38:40;15.45;;;4.32;;
22764;SDS011;11549;50.852;3.816;2023-07-13T05:41:08;18.20;;;3.90;;
22764;SDS011;11549;50.852;3.816;2023-07-13T05:43:37;19.58;;;4.57;;
22764;SDS011;11549;50.852;3.816;2023-07-13T05:46:05;14.73;;;4.30;;
22764;SDS011;11549;50.852;3.816;2023-07-13T05:48:33;14.52;;;4.28;;
22764;SDS011;11549;50.852;3.816;2023-07-13T05:51:02;16.08;;;4.25;;
22764;SDS011;11549;50.852;3.816;2023-07-13T05:53:32;17.65;;;4.40;;
22764;SDS011;11549;50.852;3.816;2023-07-13T05:56:01;14.27;;;3.83;;
22764;SDS011;11549;50.852;3.816;2023-07-13T05:58:29;19.75;;;4.82;;
22764;SDS011;11549;50.852;3.816;2023-07-13T06:00:58;16.42;;;3.83;;
22764;SDS011;11549;50.852;3.816;2023-07-13T06:03:28;13.77;;;4.03;;
22764;SDS011;11549;50.852;3.816;2023-07-13T06:05:57;18.85;;;4.25;;
22764;SDS011;11549;50.852;3.816;2023-07-13T06:08:26;18.17;;;4.45;;
22764;SDS011;11549;50.852;3.816;2023-07-13T06:11:02;14.23;;;4.28;;
22764;SDS011;11549;50.852;3.816;2023-07-13T06:13:31;16.13;;;3.90;;
22764;SDS011;11549;50.852;3.816;2023-07-13T06:16:00;13.23;;;4.57;;
22764;SDS011;11549;50.852;3.816;2023-07-13T06:18:31;14.50;;;4.05;;
22764;SDS011;11549;50.852;3.816;2023-07-13T06:20:59;14.90;;;4.15;;
22764;SDS011;11549;50.852;3.816;2023-07-13T06:23:28;19.42;;;4.88;;
22764;SDS011;11549;50.852;3.816;2023-07-13T06:25:57;16.08;;;4.07;;
22764;SDS011;11549;50.852;3.816;2023-07-13T06:28:27;19.20;;;3.88;;
22764;SDS011;11549;50.852;3.816;2023-07-13T06:30:56;15.35;;;3.65;;
22764;SDS011;11549;50.852;3.816;2023-07-13T06:33:25;13.00;;;4.07;;
22764;SDS011;11549;50.852;3.816;2023-07-13T06:35:54;15.70;;;3.80;;
22764;SDS011;11549;50.852;3.816;2023-07-13T06:38:22;14.80;;;3.80;;
22764;SDS011;11549;50.852;3.816;2023-07-13T06:40:51;12.05;;;3.40;;
22764;SDS011;11549;50.852;3.816;2023-07-13T06:43:20;13.80;;;3.63;;
22764;SDS011;11549;50.852;3.816;2023-07-13T06:45:50;13.45;;;3.85;;
22764;SDS011;11549;50.852;3.816;2023-07-13T06:48:19;16.67;;;3.60;;
22764;SDS011;11549;50.852;3.816;2023-07-13T06:50:48;14.75;;;3.50;;
22764;SDS011;11549;50.852;3.816;2023-07-13T06:53:18;17.45;;;3.35;;
22764;SDS011;11549;50.852;3.816;2023-07-13T06:55:47;11.52;;;3.10;;
22764;SDS011;11549;50.852;3.816;2023-07-13T06:58:16;12.48;;;3.30;;
22764;SDS011;11549;50.852;3.816;2023-07-13T07:00:45;12.80;;;3.58;;
22764;SDS011;11549;50.852;3.816;2023-07-13T07:03:15;14.90;;;3.67;;
22764;SDS011;11549;50.852;3.816;2023-07-13T07:05:44;12.35;;;3.35;;
22764;SDS011;11549;50.852;3.816;2023-07-13T07:08:12;10.60;;;3.42;;
22764;SDS011;11549;50.852;3.816;2023-07-13T07:10:41;12.63;;;3.53;;
22764;SDS011;11549;50.852;3.816;2023-07-13T07:13:10;13.88;;;3.10;;
22764;SDS011;11549;50.852;3.816;2023-07-13T07:15:38;15.23;;;4.00;;
22764;SDS011;11549;50.852;3.816;2023-07-13T07:18:07;11.05;;;3.38;;
22764;SDS011;11549;50.852;3.816;2023-07-13T07:20:36;14.32;;;3.88;;
22764;SDS011;11549;50.852;3.816;2023-07-13T07:23:05;11.35;;;3.13;;
22764;SDS011;11549;50.852;3.816;2023-07-13T07:25:33;12.25;;;3.30;;
22764;SDS011;11549;50.852;3.816;2023-07-13T07:28:03;11.27;;;3.47;;
22764;SDS011;11549;50.852;3.816;2023-07-13T07:30:34;11.98;;;3.15;;
22764;SDS011;11549;50.852;3.816;2023-07-13T07:33:05;8.60;;;3.03;;
22764;SDS011;11549;50.852;3.816;2023-07-13T07:35:34;19.20;;;4.25;;
22764;SDS011;11549;50.852;3.816;2023-07-13T07:38:23;12.43;;;3.42;;
22764;SDS011;11549;50.852;3.816;2023-07-13T07:40:53;12.68;;;2.90;;
22764;SDS011;11549;50.852;3.816;2023-07-13T07:43:24;11.10;;;3.30;;
22764;SDS011;11549;50.852;3.816;2023-07-13T07:45:53;12.98;;;3.70;;
22764;SDS011;11549;50.852;3.816;2023-07-13T07:48:21;12.48;;;3.17;;
22764;SDS011;11549;50.852;3.816;2023-07-13T07:50:50;13.05;;;3.67;;
22764;SDS011;11549;50.852;3.816;2023-07-13T07:53:18;12.95;;;3.33;;
22764;SDS011;11549;50.852;3.816;2023-07-13T07:55:48;12.80;;;3.30;;
22764;SDS011;11549;50.852;3.816;2023-07-13T08:00:52;12.07;;;3.25;;
22764;SDS011;11549;50.852;3.816;2023-07-13T08:03:23;14.18;;;3.05;;
22764;SDS011;11549;50.852;3.816;2023-07-13T08:05:54;15.52;;;3.45;;
22764;SDS011;11549;50.852;3.816;2023-07-13T08:08:42;10.70;;;2.90;;
22764;SDS011;11549;50.852;3.816;2023-07-13T08:11:12;14.27;;;3.42;;
22764;SDS011;11549;50.852;3.816;2023-07-13T08:13:44;10.82;;;2.95;;
22764;SDS011;11549;50.852;3.816;2023-07-13T08:16:12;11.55;;;3.13;;
22764;SDS011;11549;50.852;3.816;2023-07-13T08:18:41;14.05;;;3.67;;
22764;SDS011;11549;50.852;3.816;2023-07-13T08:21:09;11.75;;;3.20;;
22764;SDS011;11549;50.852;3.816;2023-07-13T08:23:39;11.30;;;3.08;;
22764;SDS011;11549;50.852;3.816;2023-07-13T08:26:07;12.77;;;3.50;;
22764;SDS011;11549;50.852;3.816;2023-07-13T08:28:38;13.07;;;3.00;;
22764;SDS011;11549;50.852;3.816;2023-07-13T08:31:07;10.10;;;2.72;;
22764;SDS011;11549;50.852;3.816;2023-07-13T08:33:37;12.32;;;3.05;;
22764;SDS011;11549;50.852;3.816;2023-07-13T08:36:07;11.85;;;3.30;;
22764;SDS011;11549;50.852;3.816;2023-07-13T08:38:35;10.25;;;2.90;;
22764;SDS011;11549;50.852;3.816;2023-07-13T08:41:09;12.82;;;3.45;;
22764;SDS011;11549;50.852;3.816;2023-07-13T08:43:42;12.88;;;3.03;;
22764;SDS011;11549;50.852;3.816;2023-07-13T08:46:15;9.45;;;2.97;;
22764;SDS011;11549;50.852;3.816;2023-07-13T08:48:48;9.90;;;2.83;;
22764;SDS011;11549;50.852;3.816;2023-07-13T08:51:31;12.10;;;3.22;;
22764;SDS011;11549;50.852;3.816;2023-07-13T08:54:12;9.70;;;2.63;;
22764;SDS011;11549;50.852;3.816;2023-07-13T08:56:48;9.15;;;2.40;;
22764;SDS011;11549;50.852;3.816;2023-07-13T08:59:21;7.28;;;2.40;;
22764;SDS011;11549;50.852;3.816;2023-07-13T09:01:58;11.70;;;3.38;;
22764;SDS011;11549;50.852;3.816;2023-07-13T09:04:45;8.63;;;2.90;;
22764;SDS011;11549;50.852;3.816;2023-07-13T09:07:20;11.40;;;3.03;;
22764;SDS011;11549;50.852;3.816;2023-07-13T09:09:59;8.80;;;2.40;;
22764;SDS011;11549;50.852;3.816;2023-07-13T09:12:35;7.60;;;2.28;;
22764;SDS011;11549;50.852;3.816;2023-07-13T09:15:21;8.57;;;2.35;;
22764;SDS011;11549;50.852;3.816;2023-07-13T09:17:54;8.93;;;2.90;;
22764;SDS011;11549;50.852;3.816;2023-07-13T09:20:29;9.63;;;2.40;;
22764;SDS011;11549;50.852;3.816;2023-07-13T09:23:01;10.40;;;2.67;;
22764;SDS011;11549;50.852;3.816;2023-07-13T09:25:33;9.40;;;2.72;;
22764;SDS011;11549;50.852;3.816;2023-07-13T09:28:08;7.63;;;2.40;;
22764;SDS011;11549;50.852;3.816;2023-07-13T09:30:43;7.25;;;2.30;;
22764;SDS011;11549;50.852;3.816;2023-07-13T09:33:18;9.35;;;2.55;;
22764;SDS011;11549;50.852;3.816;2023-07-13T09:35:46;7.03;;;2.50;;
22764;SDS011;11549;50.852;3.816;2023-07-13T09:38:17;12.02;;;2.78;;
22764;SDS011;11549;50.852;3.816;2023-07-13T09:40:54;7.40;;;2.17;;
22764;SDS011;11549;50.852;3.816;2023-07-13T09:43:28;8.45;;;2.15;;
22764;SDS011;11549;50.852;3.816;2023-07-13T09:45:58;10.32;;;2.50;;
22764;SDS011;11549;50.852;3.816;2023-07-13T09:48:30;8.73;;;2.30;;
22764;SDS011;11549;50.852;3.816;2023-07-13T09:51:10;9.32;;;2.67;;
22764;SDS011;11549;50.852;3.816;2023-07-13T09:53:42;8.15;;;2.35;;
22764;SDS011;11549;50.852;3.816;2023-07-13T09:56:20;8.05;;;2.17;;
22764;SDS011;11549;50.852;3.816;2023-07-13T09:58:49;8.80;;;2.25;;
22764;SDS011;11549;50.852;3.816;2023-07-13T10:01:23;7.40;;;2.30;;
22764;SDS011;11549;50.852;3.816;2023-07-13T10:03:59;11.07;;;2.47;;
22764;SDS011;11549;50.852;3.816;2023-07-13T10:06:27;6.40;;;2.00;;
22764;SDS011;11549;50.852;3.816;2023-07-13T10:08:56;8.32;;;2.03;;
22764;SDS011;11549;50.852;3.816;2023-07-13T10:11:26;6.45;;;1.80;;
22764;SDS011;11549;50.852;3.816;2023-07-13T10:13:57;6.88;;;1.98;;
22764;SDS011;11549;50.852;3.816;2023-07-13T10:16:31;6.00;;;2.05;;
22764;SDS011;11549;50.852;3.816;2023-07-13T10:19:02;8.93;;;2.40;;
22764;SDS011;11549;50.852;3.816;2023-07-13T10:21:35;7.00;;;2.33;;
22764;SDS011;11549;50.852;3.816;2023-07-13T10:24:10;7.03;;;1.98;;
22764;SDS011;11549;50.852;3.816;2023-07-13T10:26:45;7.07;;;2.00;;
22764;SDS011;11549;50.852;3.816;2023-07-13T10:29:16;8.35;;;1.90;;
22764;SDS011;11549;50.852;3.816;2023-07-13T10:31:48;6.97;;;2.10;;
22764;SDS011;11549;50.852;3.816;2023-07-13T10:34:16;5.28;;;1.80;;
22764;SDS011;11549;50.852;3.816;2023-07-13T10:36:46;6.43;;;2.00;;
22764;SDS011;11549;50.852;3.816;2023-07-13T10:39:17;8.35;;;2.00;;
22764;SDS011;11549;50.852;3.816;2023-07-13T10:41:48;7.60;;;1.88;;
22764;SDS011;11549;50.852;3.816;2023-07-13T10:44:21;5.38;;;1.65;;
22764;SDS011;11549;50.852;3.816;2023-07-13T10:46:57;5.55;;;1.80;;
22764;SDS011;11549;50.852;3.816;2023-07-13T10:49:28;7.97;;;2.08;;
22764;SDS011;11549;50.852;3.816;2023-07-13T10:51:58;5.47;;;1.55;;
22764;SDS011;11549;50.852;3.816;2023-07-13T10:54:27;8.00;;;2.30;;
22764;SDS011;11549;50.852;3.816;2023-07-13T10:57:07;5.82;;;1.80;;
22764;SDS011;11549;50.852;3.816;2023-07-13T10:59:43;7.00;;;2.10;;
22764;SDS011;11549;50.852;3.816;2023-07-13T11:02:22;6.47;;;2.25;;
22764;SDS011;11549;50.852;3.816;2023-07-13T11:04:55;7.25;;;2.67;;
22764;SDS011;11549;50.852;3.816;2023-07-13T11:07:26;7.55;;;1.95;;
22764;SDS011;11549;50.852;3.816;2023-07-13T11:09:56;6.20;;;1.98;;
22764;SDS011;11549;50.852;3.816;2023-07-13T11:12:27;7.50;;;2.13;;
22764;SDS011;11549;50.852;3.816;2023-07-13T11:15:11;7.75;;;2.38;;
22764;SDS011;11549;50.852;3.816;2023-07-13T11:17:48;8.48;;;2.47;;
22764;SDS011;11549;50.852;3.816;2023-07-13T11:20:22;8.32;;;2.40;;
22764;SDS011;11549;50.852;3.816;2023-07-13T11:23:09;11.27;;;2.25;;
22764;SDS011;11549;50.852;3.816;2023-07-13T11:25:54;8.10;;;2.30;;
22764;SDS011;11549;50.852;3.816;2023-07-13T11:28:24;7.75;;;2.33;;
22764;SDS011;11549;50.852;3.816;2023-07-13T11:31:02;5.90;;;1.80;;
22764;SDS011;11549;50.852;3.816;2023-07-13T11:33:57;7.80;;;1.80;;
22764;SDS011;11549;50.852;3.816;2023-07-13T11:36:31;4.15;;;1.88;;
22764;SDS011;11549;50.852;3.816;2023-07-13T11:39:19;6.03;;;2.35;;
22764;SDS011;11549;50.852;3.816;2023-07-13T11:42:00;6.68;;;1.98;;
22764;SDS011;11549;50.852;3.816;2023-07-13T11:44:33;5.05;;;2.17;;
22764;SDS011;11549;50.852;3.816;2023-07-13T11:51:04;4.90;;;1.80;;
22764;SDS011;11549;50.852;3.816;2023-07-13T11:53:35;4.35;;;1.88;;
22764;SDS011;11549;50.852;3.816;2023-07-13T11:56:08;3.75;;;1.80;;
22764;SDS011;11549;50.852;3.816;2023-07-13T11:58:37;3.70;;;1.58;;
22764;SDS011;11549;50.852;3.816;2023-07-13T12:01:05;4.22;;;1.83;;
22764;SDS011;11549;50.852;3.816;2023-07-13T12:03:34;5.47;;;1.95;;
22764;SDS011;11549;50.852;3.816;2023-07-13T12:06:06;4.75;;;2.00;;
22764;SDS011;11549;50.852;3.816;2023-07-13T12:08:58;6.22;;;1.90;;
22764;SDS011;11549;50.852;3.816;2023-07-13T12:11:30;6.30;;;2.10;;
22764;SDS011;11549;50.852;3.816;2023-07-13T12:14:10;4.70;;;1.98;;
22764;SDS011;11549;50.852;3.816;2023-07-13T12:16:43;5.15;;;1.92;;
22764;SDS011;11549;50.852;3.816;2023-07-13T12:19:15;5.82;;;2.20;;
22764;SDS011;11549;50.852;3.816;2023-07-13T12:21:52;7.05;;;2.10;;
22764;SDS011;11549;50.852;3.816;2023-07-13T12:26:52;5.85;;;2.08;;
22764;SDS011;11549;50.852;3.816;2023-07-13T12:29:21;6.28;;;2.00;;
22764;SDS011;11549;50.852;3.816;2023-07-13T12:31:49;5.50;;;1.90;;
22764;SDS011;11549;50.852;3.816;2023-07-13T12:34:19;3.92;;;1.70;;
22764;SDS011;11549;50.852;3.816;2023-07-13T12:36:51;5.25;;;1.83;;
22764;SDS011;11549;50.852;3.816;2023-07-13T12:39:22;6.07;;;1.73;;
22764;SDS011;11549;50.852;3.816;2023-07-13T12:41:52;5.13;;;1.80;;
22764;SDS011;11549;50.852;3.816;2023-07-13T12:44:23;5.53;;;1.83;;
22764;SDS011;11549;50.852;3.816;2023-07-13T12:46:57;6.38;;;2.22;;
22764;SDS011;11549;50.852;3.816;2023-07-13T12:49:32;5.63;;;1.65;;
22764;SDS011;11549;50.852;3.816;2023-07-13T12:52:04;7.13;;;2.10;;
22764;SDS011;11549;50.852;3.816;2023-07-13T12:54:41;7.53;;;1.83;;
22764;SDS011;11549;50.852;3.816;2023-07-13T12:57:25;5.00;;;1.70;;
22764;SDS011;11549;50.852;3.816;2023-07-13T12:59:54;7.47;;;2.33;;
22764;SDS011;11549;50.852;3.816;2023-07-13T13:02:26;6.35;;;1.77;;
22764;SDS011;11549;50.852;3.816;2023-07-13T13:04:57;7.05;;;2.33;;
22764;SDS011;11549;50.852;3.816;2023-07-13T13:07:28;6.25;;;2.03;;
22764;SDS011;11549;50.852;3.816;2023-07-13T13:09:56;5.90;;;1.73;;
22764;SDS011;11549;50.852;3.816;2023-07-13T13:12:25;7.65;;;2.00;;
22764;SDS011;11549;50.852;3.816;2023-07-13T13:14:54;8.32;;;2.25;;
22764;SDS011;11549;50.852;3.816;2023-07-13T13:17:23;6.85;;;2.03;;
22764;SDS011;11549;50.852;3.816;2023-07-13T13:19:56;6.55;;;1.95;;
22764;SDS011;11549;50.852;3.816;2023-07-13T13:22:25;6.38;;;2.00;;
22764;SDS011;11549;50.852;3.816;2023-07-13T13:24:54;5.32;;;1.80;;
22764;SDS011;11549;50.852;3.816;2023-07-13T13:27:23;4.93;;;2.00;;
22764;SDS011;11549;50.852;3.816;2023-07-13T13:29:51;5.57;;;1.95;;
22764;SDS011;11549;50.852;3.816;2023-07-13T13:32:20;5.35;;;1.90;;
22764;SDS011;11549;50.852;3.816;2023-07-13T13:34:49;4.30;;;1.45;;
22764;SDS011;11549;50.852;3.816;2023-07-13T13:37:18;3.53;;;1.40;;
22764;SDS011;11549;50.852;3.816;2023-07-13T13:39:49;4.68;;;1.50;;
22764;SDS011;11549;50.852;3.816;2023-07-13T13:42:35;2.42;;;1.30;;
22764;SDS011;11549;50.852;3.816;2023-07-13T13:45:04;5.40;;;1.50;;
22764;SDS011;11549;50.852;3.816;2023-07-13T13:47:32;3.50;;;1.42;;
22764;SDS011;11549;50.852;3.816;2023-07-13T13:50:09;6.15;;;1.60;;
22764;SDS011;11549;50.852;3.816;2023-07-13T13:52:41;4.07;;;1.48;;
22764;SDS011;11549;50.852;3.816;2023-07-13T13:55:13;4.35;;;1.65;;
22764;SDS011;11549;50.852;3.816;2023-07-13T13:57:43;3.40;;;1.30;;
22764;SDS011;11549;50.852;3.816;2023-07-13T14:00:12;4.63;;;1.67;;
22764;SDS011;11549;50.852;3.816;2023-07-13T14:02:44;4.63;;;1.58;;
22764;SDS011;11549;50.852;3.816;2023-07-13T14:05:22;4.22;;;1.35;;
22764;SDS011;11549;50.852;3.816;2023-07-13T14:07:53;5.22;;;1.67;;
22764;SDS011;11549;50.852;3.816;2023-07-13T14:10:23;2.88;;;1.27;;
22764;SDS011;11549;50.852;3.816;2023-07-13T14:12:53;4.18;;;1.70;;
22764;SDS011;11549;50.852;3.816;2023-07-13T14:15:24;4.70;;;1.60;;
22764;SDS011;11549;50.852;3.816;2023-07-13T14:17:57;4.13;;;1.63;;
22764;SDS011;11549;50.852;3.816;2023-07-13T14:20:25;2.95;;;1.45;;
22764;SDS011;11549;50.852;3.816;2023-07-13T14:22:56;3.22;;;1.40;;
22764;SDS011;11549;50.852;3.816;2023-07-13T14:25:25;3.47;;;1.50;;
22764;SDS011;11549;50.852;3.816;2023-07-13T14:27:55;3.65;;;1.60;;
22764;SDS011;11549;50.852;3.816;2023-07-13T14:30:27;3.17;;;1.65;;
22764;SDS011;11549;50.852;3.816;2023-07-13T14:32:55;3.28;;;1.50;;
22764;SDS011;11549;50.852;3.816;2023-07-13T14:35:24;4.68;;;1.65;;
22764;SDS011;11549;50.852;3.816;2023-07-13T14:37:53;4.90;;;1.80;;
22764;SDS011;11549;50.852;3.816;2023-07-13T14:40:24;4.47;;;1.60;;
22764;SDS011;11549;50.852;3.816;2023-07-13T14:42:59;4.97;;;1.80;;
22764;SDS011;11549;50.852;3.816;2023-07-13T14:45:27;3.95;;;1.42;;
22764;SDS011;11549;50.852;3.816;2023-07-13T14:47:57;3.92;;;1.63;;
22764;SDS011;11549;50.852;3.816;2023-07-13T14:50:27;3.72;;;1.48;;
22764;SDS011;11549;50.852;3.816;2023-07-13T14:52:58;3.93;;;1.53;;
22764;SDS011;11549;50.852;3.816;2023-07-13T14:55:27;4.18;;;1.60;;
22764;SDS011;11549;50.852;3.816;2023-07-13T14:57:55;3.50;;;1.60;;
22764;SDS011;11549;50.852;3.816;2023-07-13T15:00:26;4.18;;;1.50;;
22764;SDS011;11549;50.852;3.816;2023-07-13T15:02:55;3.97;;;1.80;;
22764;SDS011;11549;50.852;3.816;2023-07-13T15:05:26;4.25;;;1.55;;
22764;SDS011;11549;50.852;3.816;2023-07-13T15:07:57;5.95;;;1.50;;
22764;SDS011;11549;50.852;3.816;2023-07-13T15:10:28;3.67;;;1.60;;
22764;SDS011;11549;50.852;3.816;2023-07-13T15:12:59;4.68;;;1.70;;
22764;SDS011;11549;50.852;3.816;2023-07-13T15:15:32;3.63;;;1.70;;